Wierden, Netherlands
Current Conditions -  °F | °C
As of 1:25 PM on Monday 20 Oct 2014 (Local Time) from EHDL Reporting Station
Few Clouds Few Clouds  
Wind Chill: 59°   Ceiling: Unl
Heat Index: 59°   Visibility: 6mi
Dew Point: 55°   Wind: 12mph
Humidity: 88%   Direction: 240°WSW
Pressure: 29.97"   Gusts: NA
Location:  52.36°N, 6.59°E
Report Text: EHDL 201125Z AUTO 24010KT 9999 FEW095 15/13 Q1015 BLU
Loading
Personal Weather Stations






























Interactive Weather Map
Tropical Storm Tracking
New forecast layout! Learn more

10-Day Weather Forecast

Advertisements
Track Severe Weather on mobile